Hundvaag 1 weather for Nov 2009
Month no. 269
Obs.
Da.
Temp. Dew Point Precip. Wind
Speed
Wind gusts Cloud cover Press. Humidity Wind dir. Sunny OPT
01.11.2009 8,3 3,3 0,0 16,7 16,7 1 1017,5 71,0 45,0   55,0 %
02.11.2009 10,4 5,6 0,0 14,8 14,8 3 992,4 72,0 67,5 1 62,5 %
03.11.2009 9,1 6,7 7,6 16,7 16,7 4 996,2 85,0 135,0 1 57,5 %
04.11.2009 8,3 1,2 0,0 29,6 29,6 3 988,4 61,0 90,0 1 50,0 %
05.11.2009 5,6 -2,7 0,0 22,2 22,2 2 999,5 55,0 90,0   50,0 %
06.11.2009 3,3 -2,4 0,0 9,3 9,3 10 1007,0 66,0 67,5 1 77,5 %
07.11.2009 9,5 3,7 0,0 11,1 12,9 1 996,2 67,0 45,0   57,5 %
08.11.2009 9,1 3,9 0,0 9,3 9,3 2 1009,4 70,0 90,0   62,5 %
09.11.2009 7,3 2,6 0,0 1,9 2,6 9 1026,3 72,0 45,0 1 82,5 %
10.11.2009 3,9 1,1 0,0 1,9 1,9 10 1018,2 82,0 157,5 1 82,5 %
11.11.2009 5,3 2,7 0,0 1,9 1,9 2 1015,5 83,0 157,5   65,0 %
12.11.2009 4,7 -1,9 0,0 20,4 20,4 2 1012,4 62,0 112,5   50,0 %
13.11.2009 5,7 -0,6 0,0 7,9 7,9 4 1006,7 64,0 90,0 1 65,0 %
14.11.2009 8,6 4,1 2,5 33,3 33,3 0 996,8 73,0 22,5   40,0 %
15.11.2009 10,1 8,2 15,2 7,9 7,9 8 999,2 88,0 157,5 1 67,5 %
16.11.2009 7,9 4,3 0,0 3,7 4,3 10 1008,7 78,0 135,0   85,0 %
17.11.2009 8,6 4,4 2,5 13,0 13,0 0 995,8 75,0 157,5   55,0 %
18.11.2009 7,4 5,6 10,2 3,7 3,7 4 995,1 88,0 180,0 1 60,0 %
19.11.2009 8,4 6,5 5,1 22,2 22,2 0 1001,9 88,0 157,5   45,0 %
20.11.2009 10,4 9,2 38,1 18,5 18,5 0 1000,9 92,0 292,5   27,5 %
21.11.2009 8,8 7,2 2,5 4,0 4,0 8 1017,8 90,0 180,0 1 80,0 %
22.11.2009 11,0 9,6 25,4 31,7 31,7 0 997,9 91,0 157,5   25,0 %
23.11.2009 7,8 5,6 7,6 5,6 5,6 2 980,6 86,0 135,0   60,0 %
24.11.2009 7,9 5,9 2,5 2,6 2,6 5 990,7 87,0 202,5 1 75,0 %
25.11.2009 10,3 8,9 12,7 29,6 29,6 0 985,0 91,0 157,5   35,0 %
26.11.2009 8,4 6,0 7,6 20,4 20,4 1 984,3 85,0 247,5   47,5 %
27.11.2009 7,1 5,2 15,2 16,7 16,7 1 987,4 88,0 180,0 1 40,0 %
28.11.2009 6,8 5,1 2,5 2,1 2,1 1 992,1 89,0 112,5   62,5 %
29.11.2009 5,3 2,3 0,0 0,0 0,0 9 998,9 81,0 90,0 1 82,5 %
30.11.2009 3,2 0,4 5,1 14,8 14,8 1 996,8 82,0 292,5 1 47,5 %
                       
Avrg/Sum 7,6 4,1 162,6 13,1 13,2 3,4 1000,5 78,7 135,0 14 58,4 %